Time;durP1;ratioP1;P1;durP2;ratioP2;P2;SDS_P1;SDS_P2;PMS_P1;PMS_P2;Temp;Humidity;BMP_temperature;BMP_pressure;BME280_temperature;BME280_humidity;BME280_pressure;Samples;Min_cycle;Max_cycle;Signal;HPM_P1;HPM_P2
2023/12/28 00:02:15;;;;;;;2.83;2.50;;;;;;;;;;5054414;28;20226;-77
2023/12/28 00:04:42;;;;;;;3.60;2.77;;;;;;;;;;5054402;28;20210;-77
2023/12/28 00:07:09;;;;;;;3.20;2.90;;;;;;;;;;5054280;28;20708;-77
2023/12/28 00:09:36;;;;;;;5.37;2.70;;;;;;;;;;5047541;28;20237;-77
2023/12/28 00:12:05;;;;;;;2.77;2.57;;;;;;;;;;5054061;28;20229;-77
2023/12/28 00:14:32;;;;;;;2.73;2.53;;;;;;;;;;5054249;28;20300;-77
2023/12/28 00:16:59;;;;;;;3.17;2.13;;;;;;;;;;5053966;28;20234;-77
2023/12/28 00:19:26;;;;;;;3.90;2.50;;;;;;;;;;5054245;28;20229;-77
2023/12/28 00:21:53;;;;;;;3.00;2.80;;;;;;;;;;5053785;28;20226;-77
2023/12/28 00:24:21;;;;;;;2.70;2.50;;;;;;;;;;5054256;28;20213;-77
2023/12/28 00:26:48;;;;;;;3.10;2.80;;;;;;;;;;5053590;28;20229;-77
2023/12/28 00:29:17;;;;;;;3.13;2.83;;;;;;;;;;5053922;28;20712;-76
2023/12/28 00:31:44;;;;;;;3.00;2.77;;;;;;;;;;5053597;28;20348;-77
2023/12/28 00:34:11;;;;;;;2.30;2.20;;;;;;;;;;5054187;28;20217;-76
2023/12/28 00:36:38;;;;;;;2.80;2.60;;;;;;;;;;5053580;28;20238;-77
2023/12/28 00:39:05;;;;;;;2.53;2.33;;;;;;;;;;5054194;28;20648;-77
2023/12/28 00:41:32;;;;;;;3.67;3.20;;;;;;;;;;5053580;28;20226;-77
2023/12/28 00:43:59;;;;;;;3.17;2.60;;;;;;;;;;5053601;28;20625;-77
2023/12/28 00:46:27;;;;;;;2.90;2.60;;;;;;;;;;5053015;28;20231;-77
2023/12/28 00:48:54;;;;;;;6.73;2.77;;;;;;;;;;5053762;28;20233;-77
2023/12/28 00:51:21;;;;;;;3.10;2.63;;;;;;;;;;5053249;28;20580;-77
2023/12/28 00:53:48;;;;;;;4.83;2.60;;;;;;;;;;5053592;28;20681;-77
2023/12/28 00:56:15;;;;;;;3.63;2.30;;;;;;;;;;5053518;28;20237;-77
2023/12/28 00:58:43;;;;;;;7.07;2.70;;;;;;;;;;5053542;28;20226;-77
2023/12/28 01:01:10;;;;;;;4.10;2.93;;;;;;;;;;5053512;28;20304;-77
2023/12/28 01:03:38;;;;;;;4.63;2.80;;;;;;;;;;5053252;28;20629;-77
2023/12/28 01:06:06;;;;;;;7.77;2.83;;;;;;;;;;5053205;28;20230;-77
2023/12/28 01:08:34;;;;;;;3.83;2.97;;;;;;;;;;5051760;28;20236;-76
2023/12/28 01:11:01;;;;;;;2.80;2.60;;;;;;;;;;5052876;28;20304;-77
2023/12/28 01:13:29;;;;;;;2.80;2.43;;;;;;;;;;5053253;28;20210;-76
2023/12/28 01:15:56;;;;;;;3.10;2.77;;;;;;;;;;5052915;28;20237;-76
2023/12/28 01:18:23;;;;;;;2.10;2.00;;;;;;;;;;5053286;28;20244;-76
2023/12/28 01:20:51;;;;;;;2.47;2.27;;;;;;;;;;5052876;28;20257;-76
2023/12/28 01:23:18;;;;;;;2.20;2.10;;;;;;;;;;5053157;28;20205;-76
2023/12/28 01:25:45;;;;;;;2.00;1.90;;;;;;;;;;5052884;28;20244;-76
2023/12/28 01:28:12;;;;;;;2.60;2.40;;;;;;;;;;5053704;28;20209;-77
2023/12/28 01:30:39;;;;;;;2.67;2.47;;;;;;;;;;5053748;28;20240;-76
2023/12/28 01:33:06;;;;;;;2.27;2.17;;;;;;;;;;5053259;28;20226;-77
2023/12/28 01:35:33;;;;;;;1.83;1.73;;;;;;;;;;5052661;28;20237;-77
2023/12/28 01:38:02;;;;;;;2.53;2.33;;;;;;;;;;5052668;28;20213;-77
2023/12/28 01:40:29;;;;;;;2.17;2.07;;;;;;;;;;5052470;28;20245;-77
2023/12/28 01:42:56;;;;;;;2.63;2.03;;;;;;;;;;5052662;28;20211;-77
2023/12/28 01:45:23;;;;;;;2.77;2.40;;;;;;;;;;5052566;28;20234;-77
2023/12/28 01:47:50;;;;;;;3.10;2.60;;;;;;;;;;5052516;28;20212;-76
2023/12/28 01:50:17;;;;;;;3.10;2.50;;;;;;;;;;5052286;28;20257;-77
2023/12/28 01:52:44;;;;;;;2.10;2.00;;;;;;;;;;5048193;28;20222;-77
2023/12/28 01:55:13;;;;;;;3.03;2.57;;;;;;;;;;5052244;28;20203;-77
2023/12/28 01:57:40;;;;;;;2.10;1.80;;;;;;;;;;5052476;28;20255;-77
2023/12/28 02:00:08;;;;;;;2.30;2.07;;;;;;;;;;5049936;28;20234;-77
2023/12/28 02:02:35;;;;;;;2.70;2.50;;;;;;;;;;5052305;28;20209;-77
2023/12/28 02:05:03;;;;;;;2.60;2.40;;;;;;;;;;5052045;28;20252;-77
2023/12/28 02:07:31;;;;;;;3.03;2.40;;;;;;;;;;5049271;28;20233;-78
2023/12/28 02:09:58;;;;;;;4.60;2.40;;;;;;;;;;5053856;28;20789;-77
2023/12/28 02:12:26;;;;;;;2.80;2.57;;;;;;;;;;5051841;28;20276;-77
2023/12/28 02:14:53;;;;;;;2.33;2.17;;;;;;;;;;5051709;28;20599;-77
2023/12/28 02:17:22;;;;;;;2.60;2.40;;;;;;;;;;5051878;28;20229;-77
2023/12/28 02:19:51;;;;;;;2.50;2.30;;;;;;;;;;5051294;28;20226;-77
2023/12/28 02:22:18;;;;;;;2.17;2.00;;;;;;;;;;5051503;28;20226;-77
2023/12/28 02:24:59;;;;;;;2.53;2.30;;;;;;;;;;5051863;28;20210;-77
2023/12/28 02:27:26;;;;;;;2.50;1.60;;;;;;;;;;5051860;28;20229;-77
2023/12/28 02:29:53;;;;;;;2.67;2.47;;;;;;;;;;5051748;28;20234;-77
2023/12/28 02:32:24;;;;;;;2.43;2.20;;;;;;;;;;5051548;28;20300;-77
2023/12/28 02:34:54;;;;;;;2.63;2.43;;;;;;;;;;5051584;28;20756;-77
2023/12/28 02:37:21;;;;;;;2.63;2.43;;;;;;;;;;5051582;28;20570;-77
2023/12/28 02:39:50;;;;;;;2.27;2.07;;;;;;;;;;5051636;28;20229;-77
2023/12/28 02:42:19;;;;;;;4.37;2.50;;;;;;;;;;5051330;28;20217;-77
2023/12/28 02:44:46;;;;;;;2.27;2.00;;;;;;;;;;5051537;28;20264;-77
2023/12/28 02:47:13;;;;;;;3.27;2.30;;;;;;;;;;5050611;28;20700;-77
2023/12/28 02:49:40;;;;;;;2.50;2.20;;;;;;;;;;5051406;28;20709;-77
2023/12/28 02:52:07;;;;;;;3.03;2.70;;;;;;;;;;5048703;28;20225;-80
2023/12/28 02:54:34;;;;;;;4.10;2.40;;;;;;;;;;5051475;28;20738;-77
2023/12/28 02:57:01;;;;;;;2.03;1.93;;;;;;;;;;5050904;28;20233;-77
2023/12/28 02:59:30;;;;;;;2.20;1.97;;;;;;;;;;5047080;28;20222;-77
2023/12/28 03:01:57;;;;;;;3.03;2.23;;;;;;;;;;5050905;28;20284;-78
2023/12/28 03:04:24;;;;;;;2.90;2.60;;;;;;;;;;5051331;28;20206;-77
2023/12/28 03:06:51;;;;;;;2.97;2.70;;;;;;;;;;5050816;28;20587;-77
2023/12/28 03:09:18;;;;;;;2.60;2.40;;;;;;;;;;5049502;28;20226;-77
2023/12/28 03:11:45;;;;;;;2.90;2.60;;;;;;;;;;5050675;28;20226;-77
2023/12/28 03:14:12;;;;;;;2.37;2.17;;;;;;;;;;5051058;28;20245;-77
2023/12/28 03:16:40;;;;;;;3.30;2.57;;;;;;;;;;5050907;28;20230;-77
2023/12/28 03:19:07;;;;;;;2.20;2.03;;;;;;;;;;5045795;28;20630;-77
2023/12/28 03:21:34;;;;;;;2.53;2.30;;;;;;;;;;5050948;28;20295;-78
2023/12/28 03:24:01;;;;;;;2.70;2.20;;;;;;;;;;5050976;28;20202;-78
2023/12/28 03:26:28;;;;;;;3.23;2.80;;;;;;;;;;5050748;28;20234;-77
2023/12/28 03:28:55;;;;;;;4.47;2.70;;;;;;;;;;5050717;28;20272;-77
2023/12/28 03:31:23;;;;;;;4.27;2.17;;;;;;;;;;5051191;28;20564;-77
2023/12/28 03:33:51;;;;;;;2.73;2.40;;;;;;;;;;5054908;28;20237;-77
2023/12/28 03:36:23;;;;;;;2.47;2.10;;;;;;;;;;5054839;28;20230;-78
2023/12/28 03:38:50;;;;;;;2.10;1.90;;;;;;;;;;5054907;28;20312;-77
2023/12/28 03:41:20;;;;;;;2.63;2.43;;;;;;;;;;5054601;28;20234;-77
2023/12/28 03:43:47;;;;;;;3.00;2.40;;;;;;;;;;5055024;28;20202;-77
2023/12/28 03:46:15;;;;;;;2.93;2.70;;;;;;;;;;5054521;28;20233;-78
2023/12/28 03:48:42;;;;;;;2.10;2.00;;;;;;;;;;5054850;28;20226;-77
2023/12/28 03:51:14;;;;;;;2.57;2.40;;;;;;;;;;5054373;28;20662;-77
2023/12/28 03:53:42;;;;;;;2.77;2.30;;;;;;;;;;5054960;28;20316;-77
2023/12/28 03:56:09;;;;;;;2.53;2.33;;;;;;;;;;5052287;28;20708;-77
2023/12/28 03:58:35;;;;;;;2.57;2.37;;;;;;;;;;5050137;28;20230;-77
2023/12/28 04:01:02;;;;;;;3.50;2.40;;;;;;;;;;5054295;28;20700;-78
2023/12/28 04:03:29;;;;;;;3.47;2.17;;;;;;;;;;5054605;28;20201;-78
2023/12/28 04:05:56;;;;;;;2.60;2.20;;;;;;;;;;5054121;28;20310;-79
2023/12/28 04:08:24;;;;;;;2.40;2.23;;;;;;;;;;5054777;28;20556;-79
2023/12/28 04:10:51;;;;;;;1.57;1.53;;;;;;;;;;5054092;28;20245;-79
2023/12/28 04:13:18;;;;;;;2.70;2.50;;;;;;;;;;5054253;28;20700;-79
2023/12/28 04:15:45;;;;;;;2.83;2.53;;;;;;;;;;5054206;28;20237;-78
2023/12/28 04:18:12;;;;;;;2.20;2.10;;;;;;;;;;5046147;28;20544;-79
2023/12/28 04:20:39;;;;;;;3.20;2.57;;;;;;;;;;5054108;28;20238;-78
2023/12/28 04:23:06;;;;;;;2.40;2.20;;;;;;;;;;5048865;28;20210;-79
2023/12/28 04:25:34;;;;;;;2.60;2.40;;;;;;;;;;5048869;28;20288;-79
2023/12/28 04:28:01;;;;;;;2.57;2.37;;;;;;;;;;5054306;28;20264;-78
2023/12/28 04:30:28;;;;;;;3.17;2.50;;;;;;;;;;5053860;28;20238;-78
2023/12/28 04:32:55;;;;;;;3.13;2.33;;;;;;;;;;5054173;28;20236;-78
2023/12/28 04:35:22;;;;;;;2.00;1.90;;;;;;;;;;5047186;28;21204;-79
2023/12/28 04:37:49;;;;;;;2.50;2.30;;;;;;;;;;5054121;28;20263;-78
2023/12/28 04:40:17;;;;;;;2.20;2.00;;;;;;;;;;5053563;28;20786;-79
2023/12/28 04:42:45;;;;;;;2.50;2.30;;;;;;;;;;5053815;28;20206;-78
2023/12/28 04:45:12;;;;;;;1.90;1.80;;;;;;;;;;5052478;28;20255;-78
2023/12/28 04:47:39;;;;;;;4.00;2.43;;;;;;;;;;5054152;28;20210;-78
2023/12/28 04:50:07;;;;;;;4.23;2.40;;;;;;;;;;5053098;28;20655;-78
2023/12/28 04:52:34;;;;;;;2.43;2.23;;;;;;;;;;5053952;28;20244;-78
2023/12/28 04:55:01;;;;;;;2.23;2.13;;;;;;;;;;5053527;28;20206;-78
2023/12/28 04:57:28;;;;;;;2.00;1.80;;;;;;;;;;5053474;28;20283;-78
2023/12/28 04:59:57;;;;;;;1.90;1.80;;;;;;;;;;5053437;28;20320;-79
2023/12/28 05:02:24;;;;;;;2.03;1.93;;;;;;;;;;5053378;28;20225;-78
2023/12/28 05:04:51;;;;;;;2.23;2.03;;;;;;;;;;5053468;28;20260;-79
2023/12/28 05:07:18;;;;;;;1.87;1.77;;;;;;;;;;5053198;28;20225;-79
2023/12/28 05:09:45;;;;;;;2.87;2.63;;;;;;;;;;5053504;28;20280;-78
2023/12/28 05:12:12;;;;;;;2.60;2.30;;;;;;;;;;5052876;28;20225;-79
2023/12/28 05:14:39;;;;;;;2.00;1.90;;;;;;;;;;5053057;28;20230;-79
2023/12/28 05:17:07;;;;;;;2.23;2.03;;;;;;;;;;5052678;28;20283;-79
2023/12/28 05:19:34;;;;;;;2.60;2.40;;;;;;;;;;5053349;28;20649;-79
2023/12/28 05:22:03;;;;;;;2.77;2.50;;;;;;;;;;5052633;28;20238;-79
2023/12/28 05:24:30;;;;;;;1.97;1.87;;;;;;;;;;5053103;28;20615;-79
2023/12/28 05:26:57;;;;;;;2.70;2.50;;;;;;;;;;5049005;28;20260;-79
2023/12/28 05:29:24;;;;;;;2.73;2.53;;;;;;;;;;5051726;28;20226;-79
2023/12/28 05:31:51;;;;;;;2.63;2.43;;;;;;;;;;5052670;28;20280;-79
2023/12/28 05:34:19;;;;;;;2.43;2.20;;;;;;;;;;5053196;28;20284;-79
2023/12/28 05:36:46;;;;;;;2.77;2.50;;;;;;;;;;5052628;28;20652;-79
2023/12/28 05:39:14;;;;;;;2.70;2.50;;;;;;;;;;5052759;28;20222;-79
2023/12/28 05:41:41;;;;;;;2.27;1.90;;;;;;;;;;5052746;28;20276;-79
2023/12/28 05:44:08;;;;;;;3.43;2.23;;;;;;;;;;5052677;28;20206;-79
2023/12/28 05:46:35;;;;;;;2.70;2.43;;;;;;;;;;5052366;28;20259;-80
2023/12/28 05:49:02;;;;;;;2.03;1.90;;;;;;;;;;5052425;28;20279;-80
2023/12/28 05:51:31;;;;;;;2.50;2.30;;;;;;;;;;5052559;28;20252;-79
2023/12/28 05:53:58;;;;;;;4.17;2.60;;;;;;;;;;5052418;28;20314;-80
2023/12/28 05:56:25;;;;;;;2.23;2.13;;;;;;;;;;5052216;28;20259;-79
2023/12/28 05:58:52;;;;;;;2.97;2.60;;;;;;;;;;5052918;28;20229;-78
2023/12/28 06:01:19;;;;;;;3.47;2.40;;;;;;;;;;5051860;28;20345;-79
2023/12/28 06:03:49;;;;;;;2.10;2.00;;;;;;;;;;5050553;28;20344;-78
2023/12/28 06:06:16;;;;;;;2.40;2.20;;;;;;;;;;5052479;28;20249;-78
2023/12/28 06:08:44;;;;;;;2.03;1.93;;;;;;;;;;5053054;28;20222;-78
2023/12/28 06:11:11;;;;;;;2.10;2.00;;;;;;;;;;5052515;28;20241;-77
2023/12/28 06:13:39;;;;;;;2.60;2.40;;;;;;;;;;5052363;28;20364;-77
2023/12/28 06:16:06;;;;;;;1.43;1.43;;;;;;;;;;5051932;28;20695;-77
2023/12/28 06:18:33;;;;;;;2.17;2.00;;;;;;;;;;5052319;28;20226;-77
2023/12/28 06:21:00;;;;;;;1.80;1.70;;;;;;;;;;5052010;28;20576;-77
2023/12/28 06:23:27;;;;;;;2.30;1.93;;;;;;;;;;5045704;28;20198;-77
2023/12/28 06:25:55;;;;;;;1.60;1.53;;;;;;;;;;5051722;28;20316;-77
2023/12/28 06:28:22;;;;;;;2.00;1.87;;;;;;;;;;5051780;28;20206;-76
2023/12/28 06:30:49;;;;;;;2.03;1.93;;;;;;;;;;5051481;28;20242;-77
2023/12/28 06:33:16;;;;;;;1.97;1.87;;;;;;;;;;5051526;28;20284;-77
2023/12/28 06:35:43;;;;;;;2.13;2.03;;;;;;;;;;5051523;28;20261;-78
2023/12/28 06:38:10;;;;;;;2.07;1.97;;;;;;;;;;5042281;28;20719;-77
2023/12/28 06:40:37;;;;;;;2.33;2.17;;;;;;;;;;5051577;28;20267;-77
2023/12/28 06:43:06;;;;;;;2.73;2.40;;;;;;;;;;5051697;28;20198;-77
2023/12/28 06:45:33;;;;;;;2.80;2.60;;;;;;;;;;5051450;28;20320;-77
2023/12/28 06:48:00;;;;;;;4.70;2.70;;;;;;;;;;5051750;28;20292;-77
2023/12/28 06:50:27;;;;;;;2.10;1.90;;;;;;;;;;5050974;28;20268;-76
2023/12/28 06:52:54;;;;;;;3.07;2.23;;;;;;;;;;5051461;28;20206;-76
2023/12/28 06:55:21;;;;;;;2.33;2.10;;;;;;;;;;5042796;28;20600;-77
2023/12/28 06:57:48;;;;;;;3.83;2.43;;;;;;;;;;5051545;28;20213;-77
2023/12/28 07:00:16;;;;;;;2.20;2.10;;;;;;;;;;5050685;28;20221;-77
2023/12/28 07:02:43;;;;;;;2.27;2.17;;;;;;;;;;5051381;28;20210;-78
2023/12/28 07:05:12;;;;;;;2.60;2.40;;;;;;;;;;5050707;28;20260;-78
2023/12/28 07:07:39;;;;;;;1.80;1.70;;;;;;;;;;5050934;28;20230;-77
2023/12/28 07:10:07;;;;;;;2.90;2.10;;;;;;;;;;5050593;28;20638;-77
2023/12/28 07:12:34;;;;;;;2.70;2.40;;;;;;;;;;5051630;28;20205;-77
2023/12/28 07:15:01;;;;;;;2.40;2.20;;;;;;;;;;5050929;28;20232;-77
2023/12/28 07:17:30;;;;;;;2.17;2.07;;;;;;;;;;5051065;28;20228;-77
2023/12/28 07:19:57;;;;;;;2.50;2.30;;;;;;;;;;5051144;28;20632;-77
2023/12/28 07:22:24;;;;;;;2.27;2.17;;;;;;;;;;5050627;28;20271;-77
2023/12/28 07:24:51;;;;;;;2.60;2.40;;;;;;;;;;5051001;28;20697;-77
2023/12/28 07:27:18;;;;;;;2.63;2.43;;;;;;;;;;5050562;28;20238;-77
2023/12/28 07:29:45;;;;;;;4.10;3.70;;;;;;;;;;5051030;28;20649;-78
2023/12/28 07:32:12;;;;;;;9.03;4.03;;;;;;;;;;5050348;28;20241;-77
2023/12/28 07:34:40;;;;;;;35.73;13.27;;;;;;;;;;5046215;28;20321;-77
2023/12/28 07:37:07;;;;;;;2.70;2.40;;;;;;;;;;5050265;28;20237;-77
2023/12/28 07:39:34;;;;;;;2.27;2.07;;;;;;;;;;5050503;28;20226;-78
2023/12/28 07:42:01;;;;;;;2.57;2.30;;;;;;;;;;5046078;28;20287;-78
2023/12/28 07:44:28;;;;;;;3.03;2.53;;;;;;;;;;5043405;28;20254;-77
2023/12/28 07:46:55;;;;;;;2.40;2.27;;;;;;;;;;5048880;28;20234;-78
2023/12/28 07:49:23;;;;;;;2.33;2.13;;;;;;;;;;5050732;28;20646;-76
2023/12/28 07:51:51;;;;;;;6.93;4.70;;;;;;;;;;5050498;28;20233;-76
2023/12/28 07:54:18;;;;;;;4.10;3.23;;;;;;;;;;5049845;28;20236;-77
2023/12/28 07:56:46;;;;;;;2.47;2.27;;;;;;;;;;5050529;28;20287;-77
2023/12/28 07:59:13;;;;;;;2.53;2.33;;;;;;;;;;5046806;28;20279;-77
2023/12/28 08:01:40;;;;;;;3.13;2.83;;;;;;;;;;5049424;28;20230;-77
2023/12/28 08:04:07;;;;;;;3.80;2.80;;;;;;;;;;5050373;28;20210;-77
2023/12/28 08:06:34;;;;;;;3.53;2.13;;;;;;;;;;5050339;28;20257;-76
2023/12/28 08:09:02;;;;;;;2.83;2.13;;;;;;;;;;5050566;28;20226;-76
2023/12/28 08:11:29;;;;;;;26.30;14.10;;;;;;;;;;5050188;28;20643;-77
2023/12/28 08:13:56;;;;;;;2.90;2.70;;;;;;;;;;5050415;28;20295;-77
2023/12/28 08:16:23;;;;;;;2.50;2.30;;;;;;;;;;5050216;28;20233;-76
2023/12/28 08:18:50;;;;;;;3.53;2.90;;;;;;;;;;5053393;28;20273;-76
2023/12/28 08:21:17;;;;;;;2.60;2.30;;;;;;;;;;5050742;28;20305;-77
2023/12/28 08:23:45;;;;;;;2.30;2.20;;;;;;;;;;5052690;28;20206;-76
2023/12/28 08:26:13;;;;;;;2.27;2.00;;;;;;;;;;5045570;28;20246;-77
2023/12/28 08:28:40;;;;;;;2.90;2.57;;;;;;;;;;5052533;28;20295;-77
2023/12/28 08:31:08;;;;;;;5.40;2.40;;;;;;;;;;5048408;28;20250;-77
2023/12/28 08:33:35;;;;;;;2.30;2.10;;;;;;;;;;5050890;28;20214;-76
2023/12/28 08:36:04;;;;;;;2.50;2.30;;;;;;;;;;5053408;28;20324;-77
2023/12/28 08:38:31;;;;;;;2.00;1.90;;;;;;;;;;5053801;28;20321;-76
2023/12/28 08:40:58;;;;;;;2.03;1.93;;;;;;;;;;5053666;28;20245;-76
2023/12/28 08:43:26;;;;;;;2.83;2.63;;;;;;;;;;5053625;28;20688;-76
2023/12/28 08:45:55;;;;;;;2.23;2.13;;;;;;;;;;5053401;28;20241;-77
2023/12/28 08:48:22;;;;;;;2.20;2.00;;;;;;;;;;5053374;28;20210;-77
2023/12/28 08:50:50;;;;;;;2.23;2.03;;;;;;;;;;5053334;28;20724;-77
2023/12/28 08:53:17;;;;;;;5.03;2.30;;;;;;;;;;5053324;28;20206;-76
2023/12/28 08:55:44;;;;;;;3.43;2.57;;;;;;;;;;5053192;28;20238;-77
2023/12/28 08:58:11;;;;;;;2.07;1.97;;;;;;;;;;5053293;28;20224;-77
2023/12/28 09:00:39;;;;;;;1.57;1.53;;;;;;;;;;5053043;28;20234;-77
2023/12/28 09:03:07;;;;;;;1.97;1.87;;;;;;;;;;5053143;28;20214;-76
2023/12/28 09:05:35;;;;;;;2.40;2.20;;;;;;;;;;5052382;28;20410;-77
2023/12/28 09:08:02;;;;;;;2.37;2.20;;;;;;;;;;5052811;28;20260;-76
2023/12/28 09:10:29;;;;;;;2.07;1.97;;;;;;;;;;5044752;28;20234;-77
2023/12/28 09:12:56;;;;;;;2.13;1.67;;;;;;;;;;5050413;28;20205;-77
2023/12/28 09:15:23;;;;;;;1.70;1.60;;;;;;;;;;5052577;28;20245;-77
2023/12/28 09:17:52;;;;;;;4.17;2.70;;;;;;;;;;5053391;28;20630;-76
2023/12/28 09:20:19;;;;;;;2.27;2.07;;;;;;;;;;5052495;28;20230;-77
2023/12/28 09:22:47;;;;;;;2.83;2.10;;;;;;;;;;5053374;28;20206;-76
2023/12/28 09:25:14;;;;;;;2.60;2.00;;;;;;;;;;5052406;28;20252;-77
2023/12/28 09:27:41;;;;;;;5.23;2.33;;;;;;;;;;5053199;28;20213;-77
2023/12/28 09:30:09;;;;;;;3.10;2.20;;;;;;;;;;5051838;28;20230;-77
2023/12/28 09:32:36;;;;;;;2.10;1.90;;;;;;;;;;5053160;28;20264;-76
2023/12/28 09:35:05;;;;;;;2.40;2.20;;;;;;;;;;5052256;28;20229;-77
2023/12/28 09:37:32;;;;;;;2.20;2.10;;;;;;;;;;5042008;28;20290;-83
2023/12/28 09:39:59;;;;;;;2.70;2.60;;;;;;;;;;5049155;28;20234;-84
2023/12/28 09:42:27;;;;;;;2.70;2.50;;;;;;;;;;5052667;28;20229;-84
2023/12/28 09:44:54;;;;;;;1.87;1.73;;;;;;;;;;5052976;28;20289;-84
2023/12/28 09:47:21;;;;;;;3.93;2.33;;;;;;;;;;5053244;28;20230;-83
2023/12/28 09:49:48;;;;;;;2.23;2.03;;;;;;;;;;5053612;28;20737;-82
2023/12/28 09:52:17;;;;;;;2.00;1.83;;;;;;;;;;5053279;28;20786;-83
2023/12/28 09:54:44;;;;;;;5.50;2.20;;;;;;;;;;5053675;28;20222;-83
2023/12/28 09:57:12;;;;;;;1.80;1.70;;;;;;;;;;5053174;28;20230;-82
2023/12/28 09:59:39;;;;;;;2.13;2.03;;;;;;;;;;5053677;28;20678;-82
2023/12/28 10:02:07;;;;;;;1.60;1.57;;;;;;;;;;5052485;28;20257;-82
2023/12/28 10:04:34;;;;;;;2.30;2.10;;;;;;;;;;5052584;28;20255;-82
2023/12/28 10:07:01;;;;;;;4.70;2.40;;;;;;;;;;5050055;28;20834;-82
2023/12/28 10:09:30;;;;;;;2.50;2.30;;;;;;;;;;5052713;28;20225;-82
2023/12/28 10:11:57;;;;;;;3.33;2.50;;;;;;;;;;5052411;28;20662;-82
2023/12/28 10:14:24;;;;;;;1.83;1.63;;;;;;;;;;5052608;28;20222;-83
2023/12/28 10:16:51;;;;;;;2.47;2.27;;;;;;;;;;5052533;28;20230;-83
2023/12/28 10:19:22;;;;;;;2.30;2.10;;;;;;;;;;5052735;28;20226;-83
2023/12/28 10:21:50;;;;;;;3.43;2.40;;;;;;;;;;5052509;28;20317;-85
2023/12/28 10:24:17;;;;;;;2.17;2.07;;;;;;;;;;5052762;28;20198;-84
2023/12/28 10:26:45;;;;;;;4.80;2.33;;;;;;;;;;5053065;28;20608;-84
2023/12/28 10:29:13;;;;;;;2.67;2.40;;;;;;;;;;5053131;28;20245;-84
2023/12/28 10:31:43;;;;;;;3.40;2.20;;;;;;;;;;5052974;28;20291;-83
2023/12/28 10:34:10;;;;;;;1.73;1.63;;;;;;;;;;5052938;28;20241;-84
2023/12/28 10:36:39;;;;;;;1.83;1.73;;;;;;;;;;5053040;28;20299;-84
2023/12/28 10:39:07;;;;;;;2.03;1.93;;;;;;;;;;5053306;28;20720;-84
2023/12/28 10:41:37;;;;;;;2.20;2.10;;;;;;;;;;5052163;28;20234;-84
2023/12/28 10:44:06;;;;;;;2.50;1.93;;;;;;;;;;5055943;28;20202;-83
2023/12/28 10:46:34;;;;;;;2.60;1.50;;;;;;;;;;5046338;28;20233;-82
2023/12/28 10:49:02;;;;;;;2.10;1.90;;;;;;;;;;5063377;28;20222;-84
2023/12/28 10:51:29;;;;;;;1.37;1.37;;;;;;;;;;5045587;28;20233;-85
2023/12/28 10:54:00;;;;;;;4.60;2.20;;;;;;;;;;5054257;28;20206;-84
2023/12/28 10:56:30;;;;;;;1.83;1.73;;;;;;;;;;5051332;28;20295;-84
2023/12/28 10:59:00;;;;;;;2.20;1.70;;;;;;;;;;5051842;28;20244;-84
2023/12/28 11:01:33;;;;;;;2.37;1.80;;;;;;;;;;5045229;28;20234;-83
2023/12/28 11:04:04;;;;;;;1.27;1.27;;;;;;;;;;5049543;28;20275;-84
2023/12/28 11:06:32;;;;;;;2.00;1.90;;;;;;;;;;5051469;28;20284;-84
2023/12/28 11:09:01;;;;;;;2.70;2.20;;;;;;;;;;5051350;28;20479;-84
2023/12/28 11:11:28;;;;;;;1.70;1.60;;;;;;;;;;5051082;28;20241;-85
2023/12/28 11:13:56;;;;;;;2.17;1.97;;;;;;;;;;5050702;28;20210;-84
2023/12/28 11:16:23;;;;;;;2.40;2.20;;;;;;;;;;5050336;28;20245;-84
2023/12/28 11:18:52;;;;;;;2.20;2.00;;;;;;;;;;5050328;28;20261;-84
2023/12/28 11:21:20;;;;;;;2.03;1.90;;;;;;;;;;5050109;28;20233;-84
2023/12/28 11:23:48;;;;;;;1.60;1.57;;;;;;;;;;5050909;28;20205;-84
2023/12/28 11:26:18;;;;;;;1.93;1.83;;;;;;;;;;5050190;28;20249;-85
2023/12/28 11:28:45;;;;;;;2.40;2.20;;;;;;;;;;5050423;28;20264;-84
2023/12/28 11:31:12;;;;;;;1.93;1.83;;;;;;;;;;5050089;28;20608;-84
2023/12/28 11:33:45;;;;;;;6.20;2.20;;;;;;;;;;5045112;28;20202;-84
2023/12/28 11:36:14;;;;;;;3.17;2.60;;;;;;;;;;5050176;28;20229;-84
2023/12/28 11:38:42;;;;;;;4.07;2.60;;;;;;;;;;5050492;28;20226;-84
2023/12/28 11:41:09;;;;;;;5.27;2.67;;;;;;;;;;5050080;28;20610;-84
2023/12/28 11:43:37;;;;;;;1.67;1.57;;;;;;;;;;5051319;28;20218;-84
2023/12/28 11:46:06;;;;;;;2.77;2.53;;;;;;;;;;5045949;28;20232;-84
2023/12/28 11:48:33;;;;;;;2.37;2.17;;;;;;;;;;5050564;28;20249;-84
2023/12/28 11:51:01;;;;;;;2.60;2.40;;;;;;;;;;5050505;28;20237;-84
2023/12/28 11:53:29;;;;;;;3.37;2.30;;;;;;;;;;5052663;28;20229;-85
2023/12/28 11:56:02;;;;;;;2.10;1.83;;;;;;;;;;5054382;28;20225;-84
2023/12/28 11:58:29;;;;;;;3.57;1.97;;;;;;;;;;5054897;28;20263;-85
2023/12/28 12:00:57;;;;;;;2.00;1.90;;;;;;;;;;5054279;28;20608;-85
2023/12/28 12:03:27;;;;;;;2.07;1.90;;;;;;;;;;5054527;28;20759;-85
2023/12/28 12:05:54;;;;;;;2.17;1.97;;;;;;;;;;5053515;28;20324;-79
2023/12/28 12:08:21;;;;;;;4.27;2.10;;;;;;;;;;5054270;28;20294;-79
2023/12/28 12:10:50;;;;;;;2.07;1.93;;;;;;;;;;5050150;28;20642;-79
2023/12/28 12:13:18;;;;;;;2.00;1.90;;;;;;;;;;5052531;28;20256;-79
2023/12/28 12:15:45;;;;;;;3.53;2.03;;;;;;;;;;5053467;28;20256;-79
2023/12/28 12:18:12;;;;;;;2.87;2.27;;;;;;;;;;5053788;28;20234;-79
2023/12/28 12:20:39;;;;;;;2.20;2.10;;;;;;;;;;5053065;28;20284;-79
2023/12/28 12:23:06;;;;;;;3.20;2.77;;;;;;;;;;5054157;28;20622;-79
2023/12/28 12:25:33;;;;;;;2.13;1.93;;;;;;;;;;5052876;28;20295;-79
2023/12/28 12:28:03;;;;;;;2.33;2.20;;;;;;;;;;5053919;28;20214;-78
2023/12/28 12:30:30;;;;;;;2.60;1.80;;;;;;;;;;5052927;28;20237;-79
2023/12/28 12:32:57;;;;;;;2.50;2.30;;;;;;;;;;5053861;28;20206;-79
2023/12/28 12:35:24;;;;;;;2.97;2.67;;;;;;;;;;5053034;28;20643;-78
2023/12/28 12:37:53;;;;;;;2.50;2.30;;;;;;;;;;5053791;28;20201;-79
2023/12/28 12:40:21;;;;;;;3.70;2.47;;;;;;;;;;5051813;28;20317;-78
2023/12/28 12:42:53;;;;;;;3.97;2.20;;;;;;;;;;5053167;28;20208;-78
2023/12/28 12:45:23;;;;;;;3.37;1.90;;;;;;;;;;5052356;28;20237;-79
2023/12/28 12:47:50;;;;;;;2.10;2.00;;;;;;;;;;5048774;28;20208;-79
2023/12/28 12:50:18;;;;;;;2.20;2.00;;;;;;;;;;5045479;28;20276;-79
2023/12/28 12:52:45;;;;;;;2.50;2.30;;;;;;;;;;5047804;28;20206;-79
2023/12/28 12:55:12;;;;;;;2.53;2.33;;;;;;;;;;5046435;28;20312;-79
2023/12/28 12:57:39;;;;;;;3.27;2.60;;;;;;;;;;5047876;28;20732;-79
2023/12/28 13:00:09;;;;;;;2.60;2.13;;;;;;;;;;5046491;28;20222;-78
2023/12/28 13:02:38;;;;;;;3.63;2.03;;;;;;;;;;5049516;28;21111;-79
2023/12/28 13:05:05;;;;;;;2.03;1.93;;;;;;;;;;5045720;28;20202;-79
2023/12/28 13:07:32;;;;;;;2.63;2.43;;;;;;;;;;5048174;28;20214;-79
2023/12/28 13:09:59;;;;;;;3.03;2.20;;;;;;;;;;5047796;28;20222;-80
2023/12/28 13:12:26;;;;;;;2.43;2.23;;;;;;;;;;5045303;28;20250;-79
2023/12/28 13:14:53;;;;;;;4.17;2.03;;;;;;;;;;5047785;28;20264;-79
2023/12/28 13:17:20;;;;;;;2.33;2.13;;;;;;;;;;5045392;28;20640;-79
2023/12/28 13:19:49;;;;;;;2.30;2.20;;;;;;;;;;5047529;28;20218;-79
2023/12/28 13:22:16;;;;;;;3.10;2.37;;;;;;;;;;5047102;28;20275;-79
2023/12/28 13:24:43;;;;;;;4.00;2.13;;;;;;;;;;5046901;28;20619;-80
2023/12/28 13:27:10;;;;;;;2.20;2.00;;;;;;;;;;5047535;28;20317;-80
2023/12/28 13:29:37;;;;;;;1.93;1.83;;;;;;;;;;5047153;28;20234;-80
2023/12/28 13:32:04;;;;;;;2.43;2.17;;;;;;;;;;5046368;28;20283;-79
2023/12/28 13:34:31;;;;;;;2.00;1.87;;;;;;;;;;5045341;28;20607;-79
2023/12/28 13:37:01;;;;;;;1.90;1.70;;;;;;;;;;5046919;28;20295;-79
2023/12/28 13:39:28;;;;;;;2.63;2.20;;;;;;;;;;5044721;28;20230;-79
2023/12/28 13:41:55;;;;;;;2.27;2.17;;;;;;;;;;5046638;28;20222;-79
2023/12/28 13:44:22;;;;;;;2.50;1.77;;;;;;;;;;5046701;28;20214;-80
2023/12/28 13:46:49;;;;;;;2.40;2.20;;;;;;;;;;5046401;28;20233;-79
2023/12/28 13:49:17;;;;;;;1.80;1.70;;;;;;;;;;5049427;28;20654;-79
2023/12/28 13:51:46;;;;;;;2.20;2.00;;;;;;;;;;5043490;28;20230;-79
2023/12/28 13:54:14;;;;;;;2.27;2.17;;;;;;;;;;5052081;28;20758;-79
2023/12/28 13:56:41;;;;;;;2.57;2.13;;;;;;;;;;5051407;28;20230;-79
2023/12/28 13:59:09;;;;;;;1.93;1.83;;;;;;;;;;5051733;28;20256;-78
2023/12/28 14:01:36;;;;;;;3.00;1.70;;;;;;;;;;5051076;28;20340;-79
2023/12/28 14:04:03;;;;;;;1.77;1.67;;;;;;;;;;5052043;28;20846;-78
2023/12/28 14:06:30;;;;;;;1.63;1.53;;;;;;;;;;5051321;28;20748;-78
2023/12/28 14:08:57;;;;;;;1.40;1.30;;;;;;;;;;5052067;28;20222;-79
2023/12/28 14:11:25;;;;;;;3.80;1.83;;;;;;;;;;5050735;28;20595;-78
2023/12/28 14:13:52;;;;;;;1.20;1.20;;;;;;;;;;5051738;28;20210;-79
2023/12/28 14:16:19;;;;;;;3.03;2.40;;;;;;;;;;5051151;28;20234;-78
2023/12/28 14:18:48;;;;;;;2.30;2.13;;;;;;;;;;5043900;28;20280;-78
2023/12/28 14:21:15;;;;;;;2.33;2.13;;;;;;;;;;5046366;28;20621;-79
2023/12/28 14:23:43;;;;;;;1.40;1.33;;;;;;;;;;5049310;28;20614;-78
2023/12/28 14:26:13;;;;;;;4.00;2.13;;;;;;;;;;5049488;28;20648;-79
2023/12/28 14:28:41;;;;;;;1.90;1.80;;;;;;;;;;5045693;28;20353;-78
2023/12/28 14:31:09;;;;;;;1.87;1.77;;;;;;;;;;5049271;28;20226;-79
2023/12/28 14:33:36;;;;;;;1.70;1.60;;;;;;;;;;5044439;28;20265;-78
2023/12/28 14:36:04;;;;;;;1.73;1.63;;;;;;;;;;5049096;28;20226;-79
2023/12/28 14:38:31;;;;;;;2.40;1.73;;;;;;;;;;5049514;28;20814;-79
2023/12/28 14:40:58;;;;;;;1.77;1.67;;;;;;;;;;5042382;28;20229;-79
2023/12/28 14:43:25;;;;;;;1.90;1.80;;;;;;;;;;5049582;28;20202;-78
2023/12/28 14:45:53;;;;;;;1.37;1.27;;;;;;;;;;5050438;28;20649;-79